createdAt,value
2017-10-25T00:01:40.697Z,43.60
2017-10-25T00:04:06.853Z,47.67
2017-10-25T00:06:32.973Z,48.43
2017-10-25T00:08:59.096Z,49.40
2017-10-25T00:11:25.191Z,43.30
2017-10-25T00:13:52.015Z,46.93
2017-10-25T00:16:18.103Z,45.00
2017-10-25T00:18:44.225Z,43.50
2017-10-25T00:21:10.377Z,41.40
2017-10-25T00:23:36.518Z,40.43
2017-10-25T00:26:02.643Z,50.30
2017-10-25T00:28:28.742Z,49.40
2017-10-25T00:30:54.823Z,51.37
2017-10-25T00:33:21.015Z,52.60
2017-10-25T00:35:47.108Z,42.07
2017-10-25T00:38:13.261Z,54.40
2017-10-25T00:40:39.545Z,44.87
2017-10-25T00:43:05.703Z,56.13
2017-10-25T00:45:31.824Z,54.33
2017-10-25T00:47:58.000Z,98.73
2017-10-25T00:50:24.080Z,56.80
2017-10-25T00:52:50.181Z,50.50
2017-10-25T00:55:16.324Z,45.17
2017-10-25T00:57:42.442Z,52.40
2017-10-25T01:00:08.581Z,54.60
2017-10-25T01:02:34.748Z,48.63
2017-10-25T01:05:00.825Z,45.73
2017-10-25T01:07:26.909Z,45.73
2017-10-25T01:09:53.071Z,48.13
2017-10-25T01:12:19.196Z,58.33
2017-10-25T01:14:45.350Z,51.60
2017-10-25T01:17:11.458Z,58.83
2017-10-25T01:19:37.545Z,54.30
2017-10-25T01:22:03.678Z,55.67
2017-10-25T01:24:29.793Z,57.93
2017-10-25T01:26:55.888Z,62.70
2017-10-25T01:29:22.053Z,62.33
2017-10-25T01:31:48.213Z,60.83
2017-10-25T01:34:14.305Z,60.43
2017-10-25T01:36:41.127Z,64.47
2017-10-25T01:39:07.290Z,59.63
2017-10-25T01:41:33.401Z,62.80
2017-10-25T01:43:59.516Z,66.43
2017-10-25T01:46:25.629Z,70.47
2017-10-25T01:48:51.791Z,60.20
2017-10-25T01:51:17.909Z,69.17
2017-10-25T01:53:44.016Z,60.30
2017-10-25T01:56:10.880Z,62.03
2017-10-25T01:58:37.745Z,63.20
2017-10-25T02:01:03.916Z,59.20
2017-10-25T02:03:30.037Z,62.00
2017-10-25T02:05:56.160Z,69.53
2017-10-25T02:08:23.072Z,63.70
2017-10-25T02:10:49.172Z,60.77
2017-10-25T02:13:15.288Z,63.13
2017-10-25T02:15:42.133Z,60.60
2017-10-25T02:18:08.366Z,61.30
2017-10-25T02:20:34.523Z,61.03
2017-10-25T02:23:00.652Z,67.60
2017-10-25T02:25:26.756Z,60.10
2017-10-25T02:27:52.852Z,67.00
2017-10-25T02:30:18.961Z,66.57
2017-10-25T02:32:45.129Z,68.30
2017-10-25T02:35:11.220Z,58.83
2017-10-25T02:37:37.418Z,58.93
2017-10-25T02:40:03.548Z,67.73
2017-10-25T02:42:29.619Z,66.50
2017-10-25T02:44:55.786Z,71.23
2017-10-25T02:47:22.654Z,59.83
2017-10-25T02:49:48.862Z,66.43
2017-10-25T02:52:14.980Z,59.70
2017-10-25T02:54:41.048Z,66.50
2017-10-25T02:57:07.149Z,59.87
2017-10-25T02:59:33.275Z,74.00
2017-10-25T03:01:59.352Z,61.53
2017-10-25T03:04:25.440Z,70.33
2017-10-25T03:06:51.562Z,67.77
2017-10-25T03:09:17.656Z,64.60
2017-10-25T03:11:43.740Z,62.40
2017-10-25T03:14:09.920Z,63.57
2017-10-25T03:16:36.069Z,63.37
2017-10-25T03:19:02.186Z,64.90
2017-10-25T03:21:28.325Z,64.00
2017-10-25T03:23:54.389Z,74.10
2017-10-25T03:26:20.480Z,55.07
2017-10-25T03:28:46.581Z,57.07
2017-10-25T03:31:12.666Z,57.00
2017-10-25T03:33:38.748Z,66.00
2017-10-25T03:36:04.944Z,63.93
2017-10-25T03:38:31.313Z,56.27
2017-10-25T03:40:57.406Z,59.03
2017-10-25T03:43:23.517Z,68.27
2017-10-25T03:45:50.437Z,56.93
2017-10-25T03:48:16.545Z,63.93
2017-10-25T03:50:42.627Z,59.87
2017-10-25T03:53:08.715Z,56.33
2017-10-25T03:55:34.830Z,63.00
2017-10-25T03:58:01.746Z,54.63
2017-10-25T04:00:27.831Z,60.87
2017-10-25T04:02:54.668Z,54.40
2017-10-25T04:05:20.757Z,58.90
2017-10-25T04:07:46.846Z,54.10
2017-10-25T04:10:13.704Z,67.10
2017-10-25T04:12:40.533Z,66.10
2017-10-25T04:15:06.626Z,63.83
2017-10-25T04:17:32.744Z,60.90
2017-10-25T04:19:59.588Z,62.33
2017-10-25T04:22:25.717Z,65.27
2017-10-25T04:24:51.817Z,63.67
2017-10-25T04:27:17.922Z,57.23
2017-10-25T04:29:44.069Z,60.40
2017-10-25T04:32:10.186Z,59.67
2017-10-25T04:34:37.046Z,60.00
2017-10-25T04:37:03.882Z,62.47
2017-10-25T04:39:29.994Z,65.10
2017-10-25T04:41:56.198Z,59.33
2017-10-25T04:44:22.280Z,60.30
2017-10-25T04:46:48.417Z,65.80
2017-10-25T04:49:14.496Z,71.73
2017-10-25T04:51:41.414Z,64.30
2017-10-25T04:54:07.516Z,62.03
2017-10-25T04:56:33.668Z,63.53
2017-10-25T04:58:59.760Z,64.73
2017-10-25T05:01:26.636Z,57.90
2017-10-25T05:03:52.721Z,65.47
2017-10-25T05:06:18.854Z,60.63
2017-10-25T05:08:44.951Z,70.80
2017-10-25T05:11:11.044Z,54.27
2017-10-25T05:13:37.124Z,53.00
2017-10-25T05:16:03.232Z,62.63
2017-10-25T05:18:30.088Z,58.67
2017-10-25T05:20:56.389Z,60.57
2017-10-25T05:23:22.489Z,50.60
2017-10-25T05:25:48.681Z,49.60
2017-10-25T05:28:14.773Z,58.30
2017-10-25T05:30:40.985Z,56.03
2017-10-25T05:33:07.820Z,62.43
2017-10-25T05:35:33.913Z,70.00
2017-10-25T05:38:00.048Z,64.73
2017-10-25T05:40:26.237Z,64.83
2017-10-25T05:42:52.421Z,67.53
2017-10-25T05:45:18.591Z,62.93
2017-10-25T05:47:44.697Z,69.70
2017-10-25T05:50:10.931Z,68.37
2017-10-25T05:52:37.149Z,66.97
2017-10-25T05:55:03.241Z,73.33
2017-10-25T05:57:29.330Z,63.93
2017-10-25T05:59:56.231Z,73.47
2017-10-25T06:02:22.347Z,67.60
2017-10-25T06:04:48.422Z,69.63
2017-10-25T06:07:14.642Z,68.23
2017-10-25T06:09:40.721Z,70.37
2017-10-25T06:12:06.798Z,77.63
2017-10-25T06:14:32.961Z,70.73
2017-10-25T06:16:59.094Z,70.00
2017-10-25T06:19:25.409Z,67.43
2017-10-25T06:21:51.548Z,72.10
2017-10-25T06:24:17.649Z,77.60
2017-10-25T06:26:43.844Z,65.80
2017-10-25T06:29:09.977Z,69.20
2017-10-25T06:31:36.132Z,70.47
2017-10-25T06:34:02.201Z,71.83
2017-10-25T06:36:28.514Z,66.40
2017-10-25T06:38:54.662Z,67.40
2017-10-25T06:41:20.862Z,80.33
2017-10-25T06:43:47.034Z,69.87
2017-10-25T06:46:13.145Z,71.13
2017-10-25T06:48:39.238Z,63.83
2017-10-25T06:51:05.456Z,62.70
2017-10-25T06:53:31.606Z,75.93
2017-10-25T06:55:57.740Z,64.07
2017-10-25T06:58:30.917Z,73.17
2017-10-25T07:00:57.058Z,61.40
2017-10-25T07:03:23.144Z,65.70
2017-10-25T07:05:50.022Z,55.50
2017-10-25T07:08:16.271Z,54.10
2017-10-25T07:10:42.415Z,53.10
2017-10-25T07:13:08.544Z,54.07
2017-10-25T07:15:34.710Z,51.17
2017-10-25T07:18:00.806Z,57.27
2017-10-25T07:20:27.030Z,54.60
2017-10-25T07:22:53.872Z,51.40
2017-10-25T07:25:20.055Z,61.00
2017-10-25T07:27:46.251Z,66.50
2017-10-25T07:30:12.443Z,50.93
2017-10-25T07:32:38.530Z,51.93
2017-10-25T07:35:04.661Z,51.97
2017-10-25T07:37:30.771Z,44.23
2017-10-25T07:39:56.881Z,49.13
2017-10-25T07:42:23.020Z,48.20
2017-10-25T07:44:49.354Z,44.20
2017-10-25T07:47:15.431Z,36.90
2017-10-25T07:49:41.594Z,36.63
2017-10-25T07:52:07.718Z,35.40
2017-10-25T07:54:33.844Z,33.50
2017-10-25T07:56:59.965Z,34.47
2017-10-25T07:59:26.085Z,33.53
2017-10-25T08:01:52.192Z,32.80
2017-10-25T08:04:18.310Z,33.13
2017-10-25T08:06:44.388Z,29.03
2017-10-25T08:09:11.227Z,28.20
2017-10-25T08:11:37.349Z,32.43
2017-10-25T08:14:03.449Z,31.00
2017-10-25T08:16:29.531Z,33.70
2017-10-25T08:18:55.657Z,33.73
2017-10-25T08:21:21.733Z,28.70
2017-10-25T08:23:48.570Z,29.87
2017-10-25T08:26:14.690Z,26.80
2017-10-25T08:28:40.782Z,26.10
2017-10-25T08:31:06.857Z,31.00
2017-10-25T08:33:32.979Z,26.73
2017-10-25T08:35:59.111Z,23.60
2017-10-25T08:38:25.203Z,23.73
2017-10-25T08:40:51.366Z,32.40
2017-10-25T08:43:17.508Z,23.60
2017-10-25T08:45:43.675Z,27.07
2017-10-25T08:48:09.863Z,20.40
2017-10-25T08:50:36.659Z,22.80
2017-10-25T08:53:02.782Z,23.20
2017-10-25T08:55:28.944Z,25.90
2017-10-25T08:57:55.000Z,28.10
2017-10-25T09:00:21.069Z,26.50
2017-10-25T09:02:47.895Z,22.70
2017-10-25T09:05:14.021Z,20.80
2017-10-25T09:07:40.133Z,22.00
2017-10-25T09:10:06.236Z,21.10
2017-10-25T09:12:33.118Z,26.13
2017-10-25T09:14:59.259Z,25.33
2017-10-25T09:17:25.352Z,19.20
2017-10-25T09:19:51.470Z,19.57
2017-10-25T09:22:17.565Z,20.27
2017-10-25T09:24:43.686Z,18.77
2017-10-25T09:27:10.536Z,20.20
2017-10-25T09:29:37.420Z,25.63
2017-10-25T09:32:03.496Z,18.30
2017-10-25T09:34:29.586Z,18.40
2017-10-25T09:36:55.699Z,18.60
2017-10-25T09:39:22.685Z,17.40
2017-10-25T09:41:48.772Z,18.10
2017-10-25T09:44:14.879Z,18.07
2017-10-25T09:46:41.081Z,14.80
2017-10-25T09:49:07.221Z,17.07
2017-10-25T09:51:34.081Z,13.70
2017-10-25T09:54:00.169Z,13.20
2017-10-25T09:56:26.268Z,16.10
2017-10-25T09:58:52.334Z,16.73
2017-10-25T10:01:18.452Z,12.67
2017-10-25T10:03:44.595Z,26.93
2017-10-25T10:06:10.657Z,15.23
2017-10-25T10:08:36.728Z,18.70
2017-10-25T10:11:03.593Z,14.57
2017-10-25T10:13:30.432Z,15.53
2017-10-25T10:15:57.275Z,13.30
2017-10-25T10:18:23.370Z,13.77
2017-10-25T10:20:49.471Z,15.70
2017-10-25T10:23:15.564Z,12.17
2017-10-25T10:25:41.680Z,13.40
2017-10-25T10:28:07.773Z,15.73
2017-10-25T10:30:33.903Z,16.63
2017-10-25T10:33:00.018Z,16.67
2017-10-25T10:35:26.092Z,21.57
2017-10-25T10:37:52.896Z,29.23
2017-10-25T10:40:19.762Z,12.90
2017-10-25T10:42:45.875Z,20.23
2017-10-25T10:45:12.369Z,12.47
2017-10-25T10:47:39.269Z,13.00
2017-10-25T10:50:05.398Z,10.90
2017-10-25T10:52:31.480Z,12.83
2017-10-25T10:54:57.598Z,8.10
2017-10-25T10:57:23.685Z,13.67
2017-10-25T10:59:50.499Z,13.60
2017-10-25T11:02:16.584Z,9.77
2017-10-25T11:04:43.826Z,8.20
2017-10-25T11:07:10.744Z,9.20
2017-10-25T11:09:37.879Z,15.77
2017-10-25T11:12:04.059Z,19.03
2017-10-25T11:14:30.147Z,8.50
2017-10-25T11:16:56.988Z,8.67
2017-10-25T11:19:23.805Z,10.40
2017-10-25T11:21:49.907Z,9.50
2017-10-25T11:24:15.991Z,9.20
2017-10-25T11:26:42.246Z,7.00
2017-10-25T11:29:09.520Z,8.10
2017-10-25T11:31:38.668Z,10.53
2017-10-25T11:34:05.269Z,10.17
2017-10-25T11:36:31.543Z,6.37
2017-10-25T11:38:57.720Z,9.10
2017-10-25T11:41:24.881Z,6.27
2017-10-25T11:43:51.005Z,11.13
2017-10-25T11:46:17.112Z,9.60
2017-10-25T11:48:43.988Z,7.13
2017-10-25T11:51:10.142Z,6.20
2017-10-25T11:53:36.299Z,7.70
2017-10-25T11:56:02.383Z,14.87
2017-10-25T11:58:29.305Z,7.00
2017-10-25T12:00:55.674Z,7.00
2017-10-25T12:03:21.850Z,8.17
2017-10-25T12:05:47.973Z,7.70
2017-10-25T12:08:14.281Z,8.80
2017-10-25T12:10:40.531Z,9.13
2017-10-25T12:13:22.939Z,6.50
2017-10-25T12:15:49.566Z,6.47
2017-10-25T12:18:16.420Z,5.37
2017-10-25T12:20:43.148Z,8.03
2017-10-25T12:23:09.924Z,6.63
2017-10-25T12:25:39.142Z,6.00
2017-10-25T12:28:06.726Z,6.17
2017-10-25T12:30:34.183Z,8.27
2017-10-25T12:33:02.852Z,5.50
2017-10-25T12:35:29.753Z,9.27
2017-10-25T12:37:56.756Z,4.07
2017-10-25T12:40:24.169Z,11.70
2017-10-25T12:42:50.775Z,19.27
2017-10-25T12:45:17.360Z,8.10
2017-10-25T12:47:43.830Z,7.87
2017-10-25T12:50:11.519Z,9.23
2017-10-25T12:52:37.762Z,13.70
2017-10-25T12:55:04.390Z,13.00
2017-10-25T12:57:31.711Z,16.97
2017-10-25T12:59:58.065Z,15.97
2017-10-25T13:02:24.493Z,47.00
2017-10-25T13:04:51.184Z,54.27
2017-10-25T13:07:17.606Z,104.63
2017-10-25T13:09:44.631Z,82.07
2017-10-25T13:12:13.086Z,80.43
2017-10-25T13:14:43.106Z,103.60
2017-10-25T13:17:11.372Z,69.83
2017-10-25T13:19:37.861Z,42.77
2017-10-25T13:22:05.333Z,36.20
2017-10-25T13:24:31.885Z,164.17
2017-10-25T13:26:58.300Z,110.77
2017-10-25T13:29:24.806Z,120.17
2017-10-25T13:31:51.239Z,26.37
2017-10-25T13:34:17.851Z,56.13
2017-10-25T13:36:44.518Z,88.00
2017-10-25T13:39:11.725Z,81.30
2017-10-25T13:41:38.354Z,39.63
2017-10-25T13:44:04.741Z,27.10
2017-10-25T13:46:31.268Z,46.90
2017-10-25T13:48:57.898Z,46.30
2017-10-25T13:51:24.406Z,17.90
2017-10-25T13:53:52.653Z,24.53
2017-10-25T13:56:19.214Z,17.10
2017-10-25T13:58:45.762Z,40.53
2017-10-25T14:01:12.652Z,29.47
2017-10-25T14:03:39.107Z,13.10
2017-10-25T14:06:06.471Z,13.80
2017-10-25T14:08:33.877Z,18.10
2017-10-25T14:11:00.455Z,16.37
2017-10-25T14:13:27.987Z,11.60
2017-10-25T14:15:54.590Z,18.20
2017-10-25T14:18:20.783Z,11.33
2017-10-25T14:20:47.437Z,11.83
2017-10-25T14:23:13.594Z,14.87
2017-10-25T14:25:40.226Z,15.30
2017-10-25T14:28:18.976Z,22.60
2017-10-25T14:30:45.479Z,10.73
2017-10-25T14:33:12.631Z,11.27
2017-10-25T14:35:39.300Z,15.60
2017-10-25T14:38:05.490Z,25.43
2017-10-25T14:40:31.653Z,14.10
2017-10-25T14:42:57.783Z,12.60
2017-10-25T14:45:24.067Z,19.43
2017-10-25T14:47:50.293Z,10.53
2017-10-25T14:50:16.405Z,9.47
2017-10-25T14:52:42.591Z,14.43
2017-10-25T14:55:09.577Z,9.77
2017-10-25T14:57:36.526Z,21.83
2017-10-25T15:00:02.922Z,30.57
2017-10-25T15:02:29.026Z,15.13
2017-10-25T15:04:55.598Z,13.50
2017-10-25T15:07:21.828Z,14.13
2017-10-25T15:09:49.308Z,16.33
2017-10-25T15:12:15.562Z,10.30
2017-10-25T15:14:42.408Z,12.23
2017-10-25T15:17:08.490Z,11.03
2017-10-25T15:19:34.585Z,12.50
2017-10-25T15:22:00.656Z,8.87
2017-10-25T15:24:27.488Z,11.47
2017-10-25T15:26:53.569Z,10.57
2017-10-25T15:29:19.708Z,10.30
2017-10-25T15:31:45.822Z,10.67
2017-10-25T15:34:12.693Z,8.57
2017-10-25T15:36:38.771Z,12.03
2017-10-25T15:39:04.858Z,17.07
2017-10-25T15:41:30.973Z,9.77
2017-10-25T15:43:57.058Z,10.85
2017-10-25T15:46:23.518Z,10.67
2017-10-25T15:48:50.437Z,9.70
2017-10-25T15:51:16.889Z,8.00
2017-10-25T15:53:42.998Z,23.80
2017-10-25T15:56:09.957Z,12.30
2017-10-25T15:58:36.549Z,10.40
2017-10-25T16:01:03.301Z,10.63
2017-10-25T16:03:29.601Z,7.70
2017-10-25T16:05:56.276Z,9.57
2017-10-25T16:08:22.901Z,10.50
2017-10-25T16:10:49.096Z,10.60
2017-10-25T16:13:15.216Z,8.50
2017-10-25T16:15:41.441Z,9.83
2017-10-25T16:18:07.612Z,14.43
2017-10-25T16:20:34.449Z,9.60
2017-10-25T16:23:01.291Z,12.33
2017-10-25T16:25:27.562Z,11.33
2017-10-25T16:27:54.964Z,11.90
2017-10-25T16:30:22.488Z,12.87
2017-10-25T16:32:48.682Z,16.60
2017-10-25T16:35:15.316Z,12.10
2017-10-25T16:37:41.483Z,11.77
2017-10-25T16:40:08.383Z,12.07
2017-10-25T16:42:34.682Z,16.20
2017-10-25T16:45:01.511Z,12.60
2017-10-25T16:47:27.678Z,15.17
2017-10-25T16:49:53.796Z,15.03
2017-10-25T16:52:20.045Z,13.33
2017-10-25T16:54:46.172Z,14.93
2017-10-25T16:57:12.359Z,11.63
2017-10-25T16:59:38.540Z,14.43
2017-10-25T17:02:04.705Z,11.80
2017-10-25T17:04:30.817Z,10.33
2017-10-25T17:06:57.229Z,12.50
2017-10-25T17:09:23.624Z,11.43
2017-10-25T17:11:49.867Z,13.97
2017-10-25T17:14:16.724Z,17.50
2017-10-25T17:16:43.013Z,13.43
2017-10-25T17:19:09.142Z,14.40
2017-10-25T17:21:35.281Z,19.23
2017-10-25T17:24:01.574Z,17.80
2017-10-25T17:26:27.661Z,11.13
2017-10-25T17:28:53.938Z,20.87
2017-10-25T17:31:20.048Z,17.53
2017-10-25T17:33:46.289Z,12.33
2017-10-25T17:36:12.513Z,22.63
2017-10-25T17:38:38.679Z,14.50
2017-10-25T17:41:04.801Z,19.80
2017-10-25T17:43:31.518Z,11.73
2017-10-25T17:45:57.806Z,16.00
2017-10-25T17:48:26.002Z,29.63
2017-10-25T17:50:52.160Z,14.27
2017-10-25T17:53:18.224Z,16.27
2017-10-25T17:55:45.081Z,13.23
2017-10-25T17:58:11.897Z,37.77
2017-10-25T18:00:37.984Z,12.33
2017-10-25T18:03:04.162Z,26.70
2017-10-25T18:05:30.236Z,14.00
2017-10-25T18:07:56.316Z,16.40
2017-10-25T18:10:22.435Z,18.33
2017-10-25T18:12:49.428Z,26.10
2017-10-25T18:15:15.505Z,24.90
2017-10-25T18:17:41.770Z,20.57
2017-10-25T18:20:08.576Z,94.50
2017-10-25T18:22:34.649Z,119.30
2017-10-25T18:25:00.874Z,201.10
2017-10-25T18:27:27.037Z,187.83
2017-10-25T18:29:53.925Z,103.73
2017-10-25T18:32:20.085Z,49.37
2017-10-25T18:34:46.201Z,45.73
2017-10-25T18:37:12.309Z,57.07
2017-10-25T18:39:39.174Z,91.43
2017-10-25T18:42:05.272Z,32.90
2017-10-25T18:44:31.433Z,48.60
2017-10-25T18:46:58.273Z,31.80
2017-10-25T18:49:25.181Z,31.40
2017-10-25T18:51:51.340Z,42.60
2017-10-25T18:54:17.464Z,18.63
2017-10-25T18:56:43.592Z,15.87
2017-10-25T18:59:09.784Z,16.77
2017-10-25T19:01:35.873Z,14.47
2017-10-25T19:04:01.961Z,18.90
2017-10-25T19:06:28.181Z,16.53
2017-10-25T19:08:54.365Z,17.00
2017-10-25T19:11:20.493Z,18.43
2017-10-25T19:13:47.356Z,19.47
2017-10-25T19:16:14.219Z,16.20
2017-10-25T19:18:40.337Z,20.90
2017-10-25T19:21:07.240Z,18.00
2017-10-25T19:23:33.336Z,18.97
2017-10-25T19:26:00.188Z,21.40
2017-10-25T19:28:27.071Z,22.60
2017-10-25T19:30:53.213Z,21.47
2017-10-25T19:33:19.300Z,24.40
2017-10-25T19:35:45.426Z,26.27
2017-10-25T19:38:11.541Z,22.37
2017-10-25T19:40:37.672Z,25.80
2017-10-25T19:43:03.775Z,24.47
2017-10-25T19:45:30.631Z,27.57
2017-10-25T19:47:57.505Z,20.67
2017-10-25T19:50:23.629Z,23.97
2017-10-25T19:52:50.497Z,31.60
2017-10-25T19:55:16.591Z,27.33
2017-10-25T19:57:42.703Z,28.03
2017-10-25T20:00:08.894Z,29.30
2017-10-25T20:02:35.760Z,22.60
2017-10-25T20:05:02.573Z,26.13
2017-10-25T20:07:28.703Z,24.47
2017-10-25T20:09:54.809Z,22.00
2017-10-25T20:12:20.963Z,23.90
2017-10-25T20:14:47.454Z,19.87
2017-10-25T20:17:13.609Z,16.90
2017-10-25T20:19:40.434Z,21.67
2017-10-25T20:22:06.610Z,21.80
2017-10-25T20:24:32.695Z,20.40
2017-10-25T20:26:58.806Z,15.60
2017-10-25T20:29:25.060Z,20.40
2017-10-25T20:31:51.202Z,14.20
2017-10-25T20:34:17.355Z,19.00
2017-10-25T20:36:43.522Z,20.63
2017-10-25T20:39:09.664Z,18.43
2017-10-25T20:41:35.812Z,18.70
2017-10-25T20:44:02.649Z,14.33
2017-10-25T20:46:28.799Z,16.93
2017-10-25T20:48:55.707Z,17.10
2017-10-25T20:51:21.926Z,15.23
2017-10-25T20:53:50.814Z,16.20
2017-10-25T20:56:17.697Z,10.97
2017-10-25T20:58:43.799Z,16.10
2017-10-25T21:01:09.924Z,15.90
2017-10-25T21:03:36.027Z,13.40
2017-10-25T21:06:02.110Z,16.17
2017-10-25T21:08:29.332Z,23.80
2017-10-25T21:10:55.501Z,12.43
2017-10-25T21:13:21.876Z,12.13
2017-10-25T21:15:48.025Z,25.27
2017-10-25T21:18:14.138Z,10.50
2017-10-25T21:20:40.242Z,11.13
2017-10-25T21:23:06.362Z,8.50
2017-10-25T21:25:32.497Z,10.87
2017-10-25T21:27:58.605Z,12.80
2017-10-25T21:30:24.712Z,11.00
2017-10-25T21:32:51.574Z,14.63
2017-10-25T21:35:17.702Z,16.13
2017-10-25T21:37:44.557Z,19.33
2017-10-25T21:40:10.750Z,14.07
2017-10-25T21:42:36.879Z,16.73
2017-10-25T21:45:03.203Z,20.83
2017-10-25T21:47:29.287Z,18.97
2017-10-25T21:49:55.345Z,12.07
2017-10-25T21:52:21.449Z,25.13
2017-10-25T21:54:47.627Z,17.90
2017-10-25T21:57:13.736Z,22.20
2017-10-25T21:59:39.877Z,21.53
2017-10-25T22:02:05.963Z,24.63
2017-10-25T22:04:32.077Z,32.63
2017-10-25T22:06:58.190Z,18.80
2017-10-25T22:09:24.341Z,20.60
2017-10-25T22:11:51.178Z,24.03
2017-10-25T22:14:17.329Z,37.10
2017-10-25T22:16:43.443Z,17.57
2017-10-25T22:19:09.548Z,17.97
2017-10-25T22:21:35.675Z,16.50
2017-10-25T22:24:01.743Z,23.37
2017-10-25T22:26:27.872Z,24.10
2017-10-25T22:28:54.014Z,17.77
2017-10-25T22:31:20.103Z,16.70
2017-10-25T22:33:46.992Z,12.07
2017-10-25T22:36:13.187Z,17.67
2017-10-25T22:38:39.270Z,20.70
2017-10-25T22:41:05.446Z,20.67
2017-10-25T22:43:31.562Z,8.87
2017-10-25T22:45:57.646Z,14.60
2017-10-25T22:51:18.256Z,14.57
2017-10-25T22:53:45.153Z,15.00
2017-10-25T22:56:11.429Z,11.60
2017-10-25T22:58:37.540Z,11.40
2017-10-25T23:01:04.456Z,14.03
2017-10-25T23:03:30.725Z,14.10
2017-10-25T23:05:56.798Z,14.13
2017-10-25T23:08:23.088Z,11.50
2017-10-25T23:10:49.162Z,10.70
2017-10-25T23:13:15.244Z,9.93
2017-10-25T23:15:41.388Z,8.17
2017-10-25T23:18:07.481Z,13.70
2017-10-25T23:20:33.597Z,18.13
2017-10-25T23:23:00.484Z,11.63
2017-10-25T23:25:26.556Z,15.90
2017-10-25T23:27:52.722Z,13.70
2017-10-25T23:30:18.846Z,8.50
2017-10-25T23:32:45.047Z,11.33
2017-10-25T23:35:11.124Z,12.70
2017-10-25T23:37:37.262Z,13.93
2017-10-25T23:40:03.376Z,11.93
2017-10-25T23:42:29.590Z,10.90
2017-10-25T23:44:55.710Z,12.50
2017-10-25T23:47:22.533Z,12.63
2017-10-25T23:49:48.614Z,18.10
2017-10-25T23:52:14.731Z,11.10
2017-10-25T23:54:41.562Z,18.70
2017-10-25T23:57:07.670Z,13.33
2017-10-25T23:59:33.777Z,19.80
